sensor_id;sensor_type;location;lat;lon;timestamp;pressure;altitude;pressure_sealevel;temperature;humidity
71764;BME280;59602;52.142;5.408;2023-03-23T00:00:37;100313.16;;;11.17;96.22
71764;BME280;59602;52.142;5.408;2023-03-23T00:03:03;100312.78;;;11.15;96.31
71764;BME280;59602;52.142;5.408;2023-03-23T00:05:29;100312.78;;;11.15;96.28
71764;BME280;59602;52.142;5.408;2023-03-23T00:07:54;100297.22;;;11.15;96.40
71764;BME280;59602;52.142;5.408;2023-03-23T00:10:20;100280.13;;;11.15;96.01
71764;BME280;59602;52.142;5.408;2023-03-23T00:12:46;100284.00;;;11.14;95.94
71764;BME280;59602;52.142;5.408;2023-03-23T00:15:15;100274.31;;;11.16;95.72
71764;BME280;59602;52.142;5.408;2023-03-23T00:17:41;100282.47;;;11.16;95.64
71764;BME280;59602;52.142;5.408;2023-03-23T00:20:09;100300.72;;;11.16;95.80
71764;BME280;59602;52.142;5.408;2023-03-23T00:22:37;100295.66;;;11.18;95.64
71764;BME280;59602;52.142;5.408;2023-03-23T00:25:06;100298.38;;;11.18;95.51
71764;BME280;59602;52.142;5.408;2023-03-23T00:27:33;100298.00;;;11.19;95.53
71764;BME280;59602;52.142;5.408;2023-03-23T00:29:59;100284.78;;;11.18;95.23
71764;BME280;59602;52.142;5.408;2023-03-23T00:32:25;100278.94;;;11.19;95.01
71764;BME280;59602;52.142;5.408;2023-03-23T00:34:53;100277.38;;;11.18;95.37
71764;BME280;59602;52.142;5.408;2023-03-23T00:37:18;100278.16;;;11.19;95.00
71764;BME280;59602;52.142;5.408;2023-03-23T00:39:44;100284.38;;;11.19;94.62
71764;BME280;59602;52.142;5.408;2023-03-23T00:42:14;100282.81;;;11.18;94.84
71764;BME280;59602;52.142;5.408;2023-03-23T00:44:40;100271.94;;;11.18;94.29
71764;BME280;59602;52.142;5.408;2023-03-23T00:47:07;100275.44;;;11.19;94.41
71764;BME280;59602;52.142;5.408;2023-03-23T00:49:34;100265.72;;;11.18;94.49
71764;BME280;59602;52.142;5.408;2023-03-23T00:52:00;100269.22;;;11.18;94.43
71764;BME280;59602;52.142;5.408;2023-03-23T00:54:26;100260.28;;;11.18;94.35
71764;BME280;59602;52.142;5.408;2023-03-23T00:56:52;100257.16;;;11.19;94.20
71764;BME280;59602;52.142;5.408;2023-03-23T00:59:19;100244.72;;;11.18;94.14
71764;BME280;59602;52.142;5.408;2023-03-23T01:01:45;100247.44;;;11.18;93.37
71764;BME280;59602;52.142;5.408;2023-03-23T01:04:11;100242.00;;;11.22;93.10
71764;BME280;59602;52.142;5.408;2023-03-23T01:06:40;100242.75;;;11.26;92.94
71764;BME280;59602;52.142;5.408;2023-03-23T01:09:08;100246.22;;;11.27;93.11
71764;BME280;59602;52.142;5.408;2023-03-23T01:11:34;100240.78;;;11.27;92.80
71764;BME280;59602;52.142;5.408;2023-03-23T01:14:01;100235.34;;;11.27;92.79
71764;BME280;59602;52.142;5.408;2023-03-23T01:16:40;100218.25;;;11.26;93.20
71764;BME280;59602;52.142;5.408;2023-03-23T01:19:05;100229.50;;;11.28;92.63
71764;BME280;59602;52.142;5.408;2023-03-23T01:21:31;100245.47;;;11.30;92.65
71764;BME280;59602;52.142;5.408;2023-03-23T01:23:56;100243.50;;;11.30;92.25
71764;BME280;59602;52.142;5.408;2023-03-23T01:26:25;100236.88;;;11.31;92.52
71764;BME280;59602;52.142;5.408;2023-03-23T01:28:51;100209.66;;;11.31;92.44
71764;BME280;59602;52.142;5.408;2023-03-23T01:31:21;100212.38;;;11.31;91.72
71764;BME280;59602;52.142;5.408;2023-03-23T01:33:47;100220.53;;;11.31;91.88
71764;BME280;59602;52.142;5.408;2023-03-23T01:36:20;100211.22;;;11.32;92.13
71764;BME280;59602;52.142;5.408;2023-03-23T01:38:49;100208.88;;;11.31;91.70
71764;BME280;59602;52.142;5.408;2023-03-23T01:41:16;100201.09;;;11.33;91.97
71764;BME280;59602;52.142;5.408;2023-03-23T01:44:04;100211.59;;;11.34;91.96
71764;BME280;59602;52.142;5.408;2023-03-23T01:46:32;100203.81;;;11.33;91.80
71764;BME280;59602;52.142;5.408;2023-03-23T01:49:03;100199.16;;;11.33;91.64
71764;BME280;59602;52.142;5.408;2023-03-23T01:51:36;100199.53;;;11.32;91.78
71764;BME280;59602;52.142;5.408;2023-03-23T01:54:04;100201.50;;;11.31;91.51
71764;BME280;59602;52.142;5.408;2023-03-23T01:56:36;100205.34;;;11.34;91.28
71764;BME280;59602;52.142;5.408;2023-03-23T01:59:07;100199.16;;;11.33;91.41
71764;BME280;59602;52.142;5.408;2023-03-23T02:01:34;100198.75;;;11.35;91.00
71764;BME280;59602;52.142;5.408;2023-03-23T02:04:04;100189.41;;;11.36;90.69
71764;BME280;59602;52.142;5.408;2023-03-23T02:06:30;100182.41;;;11.35;90.89
71764;BME280;59602;52.142;5.408;2023-03-23T02:08:56;100189.78;;;11.38;90.82
71764;BME280;59602;52.142;5.408;2023-03-23T02:11:22;100189.41;;;11.36;90.71
71764;BME280;59602;52.142;5.408;2023-03-23T02:13:49;100189.81;;;11.34;90.93
71764;BME280;59602;52.142;5.408;2023-03-23T02:18:52;100185.16;;;11.35;90.84
71764;BME280;59602;52.142;5.408;2023-03-23T02:24:30;100186.31;;;11.34;91.45
71764;BME280;59602;52.142;5.408;2023-03-23T02:27:05;100189.44;;;11.32;91.20
71764;BME280;59602;52.142;5.408;2023-03-23T02:35:08;100190.19;;;11.36;90.89
71764;BME280;59602;52.142;5.408;2023-03-23T02:37:40;100183.19;;;11.35;90.92
71764;BME280;59602;52.142;5.408;2023-03-23T02:40:21;100188.25;;;11.37;90.87
71764;BME280;59602;52.142;5.408;2023-03-23T02:42:53;100192.50;;;11.38;90.85
71764;BME280;59602;52.142;5.408;2023-03-23T02:45:20;100177.72;;;11.39;90.85
71764;BME280;59602;52.142;5.408;2023-03-23T02:47:50;100183.56;;;11.41;90.87
71764;BME280;59602;52.142;5.408;2023-03-23T02:50:19;100185.09;;;11.42;90.78
71764;BME280;59602;52.142;5.408;2023-03-23T02:52:48;100184.31;;;11.41;90.77
71764;BME280;59602;52.142;5.408;2023-03-23T02:55:16;100184.69;;;11.43;90.37
71764;BME280;59602;52.142;5.408;2023-03-23T02:57:45;100177.28;;;11.44;90.50
71764;BME280;59602;52.142;5.408;2023-03-23T03:00:14;100185.47;;;11.44;90.87
71764;BME280;59602;52.142;5.408;2023-03-23T03:02:44;100187.00;;;11.45;90.43
71764;BME280;59602;52.142;5.408;2023-03-23T03:10:52;100180.34;;;11.50;89.88
71764;BME280;59602;52.142;5.408;2023-03-23T03:13:29;100172.97;;;11.50;90.03
71764;BME280;59602;52.142;5.408;2023-03-23T03:16:04;100184.25;;;11.52;89.82
71764;BME280;59602;52.142;5.408;2023-03-23T03:18:39;100183.41;;;11.55;89.72
71764;BME280;59602;52.142;5.408;2023-03-23T03:21:09;100170.19;;;11.54;89.37
71764;BME280;59602;52.142;5.408;2023-03-23T03:23:39;100178.38;;;11.54;89.73
71764;BME280;59602;52.142;5.408;2023-03-23T03:26:11;100172.16;;;11.53;89.44
71764;BME280;59602;52.142;5.408;2023-03-23T03:28:38;100172.53;;;11.55;89.10
71764;BME280;59602;52.142;5.408;2023-03-23T03:31:05;100172.13;;;11.57;89.10
71764;BME280;59602;52.142;5.408;2023-03-23T03:33:32;100170.19;;;11.57;88.88
71764;BME280;59602;52.142;5.408;2023-03-23T03:36:01;100168.63;;;11.56;88.56
71764;BME280;59602;52.142;5.408;2023-03-23T03:38:27;100167.06;;;11.59;88.50
71764;BME280;59602;52.142;5.408;2023-03-23T03:40:54;100162.38;;;11.59;88.45
71764;BME280;59602;52.142;5.408;2023-03-23T03:43:20;100164.34;;;11.59;88.45
71764;BME280;59602;52.142;5.408;2023-03-23T03:45:45;100160.44;;;11.60;88.63
71764;BME280;59602;52.142;5.408;2023-03-23T03:48:11;100149.16;;;11.58;88.41
71764;BME280;59602;52.142;5.408;2023-03-23T03:50:39;100146.06;;;11.59;88.23
71764;BME280;59602;52.142;5.408;2023-03-23T03:53:06;100155.38;;;11.58;88.27
71764;BME280;59602;52.142;5.408;2023-03-23T03:55:32;100163.16;;;11.60;88.18
71764;BME280;59602;52.142;5.408;2023-03-23T03:58:01;100157.69;;;11.63;87.78
71764;BME280;59602;52.142;5.408;2023-03-23T04:00:28;100154.53;;;11.65;87.81
71764;BME280;59602;52.142;5.408;2023-03-23T04:02:53;100151.81;;;11.65;87.87
71764;BME280;59602;52.142;5.408;2023-03-23T04:05:21;100151.44;;;11.63;87.88
71764;BME280;59602;52.142;5.408;2023-03-23T04:07:53;100157.69;;;11.63;87.83
71764;BME280;59602;52.142;5.408;2023-03-23T04:10:20;100151.06;;;11.64;87.98
71764;BME280;59602;52.142;5.408;2023-03-23T04:12:48;100159.22;;;11.64;88.09
71764;BME280;59602;52.142;5.408;2023-03-23T04:15:14;100162.31;;;11.67;87.66
71764;BME280;59602;52.142;5.408;2023-03-23T04:17:40;100164.28;;;11.66;87.74
71764;BME280;59602;52.142;5.408;2023-03-23T04:20:09;100153.78;;;11.64;87.61
71764;BME280;59602;52.142;5.408;2023-03-23T04:22:43;100163.88;;;11.68;87.56
71764;BME280;59602;52.142;5.408;2023-03-23T04:25:16;100180.22;;;11.68;87.56
71764;BME280;59602;52.142;5.408;2023-03-23T04:27:46;100164.22;;;11.70;86.81
71764;BME280;59602;52.142;5.408;2023-03-23T04:30:21;100172.00;;;11.71;86.89
71764;BME280;59602;52.142;5.408;2023-03-23T04:32:49;100168.88;;;11.73;86.45
71764;BME280;59602;52.142;5.408;2023-03-23T04:35:17;100157.22;;;11.72;86.33
71764;BME280;59602;52.142;5.408;2023-03-23T04:37:44;100167.75;;;11.70;86.33
71764;BME280;59602;52.142;5.408;2023-03-23T04:40:11;100175.50;;;11.72;85.98
71764;BME280;59602;52.142;5.408;2023-03-23T04:42:41;100173.56;;;11.72;85.36
71764;BME280;59602;52.142;5.408;2023-03-23T04:45:13;100193.38;;;11.73;85.65
71764;BME280;59602;52.142;5.408;2023-03-23T04:47:40;100197.66;;;11.74;85.52
71764;BME280;59602;52.142;5.408;2023-03-23T04:50:10;100180.53;;;11.73;85.65
71764;BME280;59602;52.142;5.408;2023-03-23T04:52:38;100187.19;;;11.72;85.54
71764;BME280;59602;52.142;5.408;2023-03-23T04:55:06;100201.97;;;11.71;85.36
71764;BME280;59602;52.142;5.408;2023-03-23T04:57:33;100198.84;;;11.73;85.14
71764;BME280;59602;52.142;5.408;2023-03-23T05:00:01;100188.72;;;11.73;85.10
71764;BME280;59602;52.142;5.408;2023-03-23T05:02:30;100197.28;;;11.72;85.34
71764;BME280;59602;52.142;5.408;2023-03-23T05:04:57;100201.97;;;11.71;85.09
71764;BME280;59602;52.142;5.408;2023-03-23T05:07:41;100204.28;;;11.73;85.29
71764;BME280;59602;52.142;5.408;2023-03-23T05:10:09;100205.06;;;11.70;85.44
71764;BME280;59602;52.142;5.408;2023-03-23T05:12:35;100204.31;;;11.69;85.81
71764;BME280;59602;52.142;5.408;2023-03-23T05:15:02;100210.53;;;11.70;85.37
71764;BME280;59602;52.142;5.408;2023-03-23T05:17:28;100223.38;;;11.69;85.76
71764;BME280;59602;52.142;5.408;2023-03-23T05:19:56;100230.38;;;11.70;85.72
71764;BME280;59602;52.142;5.408;2023-03-23T05:22:22;100216.38;;;11.68;86.12
71764;BME280;59602;52.142;5.408;2023-03-23T05:24:49;100224.94;;;11.67;86.67
71764;BME280;59602;52.142;5.408;2023-03-23T05:27:17;100221.47;;;11.62;87.03
71764;BME280;59602;52.142;5.408;2023-03-23T05:29:45;100214.91;;;11.56;87.87
71764;BME280;59602;52.142;5.408;2023-03-23T05:32:15;100213.38;;;11.52;88.29
71764;BME280;59602;52.142;5.408;2023-03-23T05:34:41;100225.47;;;11.47;89.15
71764;BME280;59602;52.142;5.408;2023-03-23T05:37:09;100229.00;;;11.44;89.73
71764;BME280;59602;52.142;5.408;2023-03-23T05:39:35;100234.91;;;11.39;89.73
71764;BME280;59602;52.142;5.408;2023-03-23T05:42:02;100248.88;;;11.37;89.60
71764;BME280;59602;52.142;5.408;2023-03-23T05:44:29;100242.69;;;11.37;90.02
71764;BME280;59602;52.142;5.408;2023-03-23T05:46:55;100243.06;;;11.35;90.02
71764;BME280;59602;52.142;5.408;2023-03-23T05:49:21;100246.19;;;11.34;90.42
71764;BME280;59602;52.142;5.408;2023-03-23T05:51:47;100246.22;;;11.30;91.00
71764;BME280;59602;52.142;5.408;2023-03-23T05:54:15;100245.09;;;11.24;91.28
71764;BME280;59602;52.142;5.408;2023-03-23T05:56:41;100247.81;;;11.20;92.04
71764;BME280;59602;52.142;5.408;2023-03-23T05:59:07;100242.00;;;11.18;92.41
71764;BME280;59602;52.142;5.408;2023-03-23T06:01:33;100253.31;;;11.17;92.63
71764;BME280;59602;52.142;5.408;2023-03-23T06:03:59;100268.44;;;11.18;92.99
71764;BME280;59602;52.142;5.408;2023-03-23T06:06:26;100271.59;;;11.13;93.77
71764;BME280;59602;52.142;5.408;2023-03-23T06:08:51;100286.00;;;11.10;93.60
71764;BME280;59602;52.142;5.408;2023-03-23T06:11:17;100274.72;;;11.08;94.18
71764;BME280;59602;52.142;5.408;2023-03-23T06:13:44;100271.63;;;11.06;94.64
71764;BME280;59602;52.142;5.408;2023-03-23T06:16:10;100275.94;;;10.99;95.27
71764;BME280;59602;52.142;5.408;2023-03-23T06:18:36;100275.94;;;10.96;95.87
71764;BME280;59602;52.142;5.408;2023-03-23T06:21:07;100286.44;;;10.94;95.70
71764;BME280;59602;52.142;5.408;2023-03-23T06:23:34;100279.44;;;10.93;96.06
71764;BME280;59602;52.142;5.408;2023-03-23T06:26:03;100278.69;;;10.92;96.04
71764;BME280;59602;52.142;5.408;2023-03-23T06:28:29;100282.19;;;10.89;96.44
71764;BME280;59602;52.142;5.408;2023-03-23T06:30:54;100293.84;;;10.90;97.05
71764;BME280;59602;52.142;5.408;2023-03-23T06:33:20;100289.94;;;10.91;97.43
71764;BME280;59602;52.142;5.408;2023-03-23T06:35:46;100289.56;;;10.92;97.20
71764;BME280;59602;52.142;5.408;2023-03-23T06:38:11;100301.22;;;10.93;97.53
71764;BME280;59602;52.142;5.408;2023-03-23T06:40:38;100301.22;;;10.93;97.53
71764;BME280;59602;52.142;5.408;2023-03-23T06:43:04;100307.41;;;10.93;97.56
71764;BME280;59602;52.142;5.408;2023-03-23T06:45:30;100314.03;;;10.92;97.53
71764;BME280;59602;52.142;5.408;2023-03-23T06:47:56;100322.19;;;10.92;97.82
71764;BME280;59602;52.142;5.408;2023-03-23T06:50:22;100314.03;;;10.92;97.71
71764;BME280;59602;52.142;5.408;2023-03-23T06:52:49;100321.41;;;10.95;98.22
71764;BME280;59602;52.142;5.408;2023-03-23T06:55:16;100323.34;;;10.95;98.26
71764;BME280;59602;52.142;5.408;2023-03-23T06:57:42;100323.34;;;10.91;98.05
71764;BME280;59602;52.142;5.408;2023-03-23T07:00:11;100317.53;;;10.89;98.32
71764;BME280;59602;52.142;5.408;2023-03-23T07:02:38;100326.50;;;10.86;98.46
71764;BME280;59602;52.142;5.408;2023-03-23T07:05:08;100317.94;;;10.84;98.66
71764;BME280;59602;52.142;5.408;2023-03-23T07:07:35;100326.88;;;10.85;98.79
71764;BME280;59602;52.142;5.408;2023-03-23T07:10:02;100315.22;;;10.88;98.64
71764;BME280;59602;52.142;5.408;2023-03-23T07:12:29;100328.03;;;10.87;98.64
71764;BME280;59602;52.142;5.408;2023-03-23T07:14:54;100317.56;;;10.86;98.90
71764;BME280;59602;52.142;5.408;2023-03-23T07:17:20;100331.56;;;10.84;98.82
71764;BME280;59602;52.142;5.408;2023-03-23T07:19:46;100322.25;;;10.85;98.87
71764;BME280;59602;52.142;5.408;2023-03-23T07:24:39;100322.19;;;10.92;99.14
71764;BME280;59602;52.142;5.408;2023-03-23T07:27:34;100320.63;;;10.91;98.98
71764;BME280;59602;52.142;5.408;2023-03-23T07:30:11;100333.09;;;10.92;99.10
71764;BME280;59602;52.142;5.408;2023-03-23T07:33:04;100333.44;;;10.98;98.52
71764;BME280;59602;52.142;5.408;2023-03-23T07:35:38;100339.66;;;11.02;98.59
71764;BME280;59602;52.142;5.408;2023-03-23T07:38:05;100337.69;;;11.06;98.46
71764;BME280;59602;52.142;5.408;2023-03-23T07:40:37;100342.75;;;11.08;97.62
71764;BME280;59602;52.142;5.408;2023-03-23T07:43:06;100339.63;;;11.09;97.38
71764;BME280;59602;52.142;5.408;2023-03-23T07:45:33;100353.22;;;11.09;97.44
71764;BME280;59602;52.142;5.408;2023-03-23T07:48:03;100352.81;;;11.14;97.03
71764;BME280;59602;52.142;5.408;2023-03-23T07:50:28;100355.91;;;11.20;97.22
71764;BME280;59602;52.142;5.408;2023-03-23T07:52:57;100362.09;;;11.24;96.74
71764;BME280;59602;52.142;5.408;2023-03-23T07:55:25;100353.94;;;11.28;96.73
71764;BME280;59602;52.142;5.408;2023-03-23T07:57:53;100360.91;;;11.25;96.29
71764;BME280;59602;52.142;5.408;2023-03-23T08:00:21;100359.38;;;11.24;96.42
71764;BME280;59602;52.142;5.408;2023-03-23T08:02:51;100360.91;;;11.25;96.55
71764;BME280;59602;52.142;5.408;2023-03-23T08:05:18;100346.91;;;11.30;96.93
71764;BME280;59602;52.142;5.408;2023-03-23T08:07:44;100356.22;;;11.36;96.63
71764;BME280;59602;52.142;5.408;2023-03-23T08:10:12;100354.66;;;11.39;96.70
71764;BME280;59602;52.142;5.408;2023-03-23T08:12:39;100357.38;;;11.39;96.62
71764;BME280;59602;52.142;5.408;2023-03-23T08:15:10;100372.91;;;11.38;96.59
71764;BME280;59602;52.142;5.408;2023-03-23T08:17:38;100376.06;;;11.37;96.02
71764;BME280;59602;52.142;5.408;2023-03-23T08:20:06;100361.28;;;11.34;95.83
71764;BME280;59602;52.142;5.408;2023-03-23T08:22:35;100358.56;;;11.34;95.96
71764;BME280;59602;52.142;5.408;2023-03-23T08:25:02;100370.19;;;11.38;95.86
71764;BME280;59602;52.142;5.408;2023-03-23T08:27:29;100367.06;;;11.43;95.33
71764;BME280;59602;52.142;5.408;2023-03-23T08:29:54;100362.75;;;11.53;95.41
71764;BME280;59602;52.142;5.408;2023-03-23T08:32:20;100368.13;;;11.64;95.14
71764;BME280;59602;52.142;5.408;2023-03-23T08:34:46;100358.75;;;11.72;95.15
71764;BME280;59602;52.142;5.408;2023-03-23T08:37:11;100377.72;;;11.87;94.99
71764;BME280;59602;52.142;5.408;2023-03-23T08:39:37;100377.69;;;11.97;94.80
71764;BME280;59602;52.142;5.408;2023-03-23T08:42:03;100390.53;;;11.97;93.52
71764;BME280;59602;52.142;5.408;2023-03-23T08:44:28;100378.06;;;11.96;93.82
71764;BME280;59602;52.142;5.408;2023-03-23T08:46:54;100385.84;;;11.97;93.75
71764;BME280;59602;52.142;5.408;2023-03-23T08:49:23;100386.25;;;11.96;93.56
71764;BME280;59602;52.142;5.408;2023-03-23T08:51:49;100394.06;;;11.90;93.18
71764;BME280;59602;52.142;5.408;2023-03-23T08:54:15;100382.78;;;11.84;92.93
71764;BME280;59602;52.142;5.408;2023-03-23T08:56:42;100391.78;;;11.81;92.42
71764;BME280;59602;52.142;5.408;2023-03-23T08:59:08;100397.97;;;11.82;92.40
71764;BME280;59602;52.142;5.408;2023-03-23T09:01:34;100399.13;;;11.84;93.05
71764;BME280;59602;52.142;5.408;2023-03-23T09:04:00;100406.50;;;11.91;92.82
71764;BME280;59602;52.142;5.408;2023-03-23T09:06:26;100407.28;;;11.92;92.67
71764;BME280;59602;52.142;5.408;2023-03-23T09:08:53;100415.06;;;11.97;93.01
71764;BME280;59602;52.142;5.408;2023-03-23T09:11:20;100408.41;;;11.98;92.66
71764;BME280;59602;52.142;5.408;2023-03-23T09:13:46;100409.22;;;11.95;92.23
71764;BME280;59602;52.142;5.408;2023-03-23T09:16:13;100406.47;;;11.98;92.24
71764;BME280;59602;52.142;5.408;2023-03-23T09:18:39;100407.97;;;12.07;91.41
71764;BME280;59602;52.142;5.408;2023-03-23T09:21:06;100397.78;;;12.18;91.43
71764;BME280;59602;52.142;5.408;2023-03-23T09:23:32;100402.78;;;12.23;89.94
71764;BME280;59602;52.142;5.408;2023-03-23T09:26:00;100400.03;;;12.27;89.96
71764;BME280;59602;52.142;5.408;2023-03-23T09:28:26;100410.94;;;12.30;88.49
71764;BME280;59602;52.142;5.408;2023-03-23T09:30:55;100405.81;;;12.36;88.35
71764;BME280;59602;52.142;5.408;2023-03-23T09:33:23;100404.66;;;12.33;87.78
71764;BME280;59602;52.142;5.408;2023-03-23T09:35:49;100412.47;;;12.28;86.83
71764;BME280;59602;52.142;5.408;2023-03-23T09:38:14;100422.25;;;12.25;86.94
71764;BME280;59602;52.142;5.408;2023-03-23T09:40:49;100416.72;;;12.36;85.84
71764;BME280;59602;52.142;5.408;2023-03-23T09:43:21;100428.00;;;12.34;85.06
71764;BME280;59602;52.142;5.408;2023-03-23T09:53:47;100427.31;;;12.72;85.15
71764;BME280;59602;52.142;5.408;2023-03-23T09:56:15;100427.69;;;12.74;84.38
71764;BME280;59602;52.142;5.408;2023-03-23T09:58:46;100426.94;;;12.70;83.66
71764;BME280;59602;52.142;5.408;2023-03-23T10:01:43;100431.94;;;12.75;83.35
71764;BME280;59602;52.142;5.408;2023-03-23T10:04:23;100451.47;;;12.73;81.73
71764;BME280;59602;52.142;5.408;2023-03-23T10:06:50;100448.81;;;12.66;81.78
71764;BME280;59602;52.142;5.408;2023-03-23T10:09:28;100450.72;;;12.69;82.43
71764;BME280;59602;52.142;5.408;2023-03-23T10:12:09;100437.81;;;12.73;82.14
71764;BME280;59602;52.142;5.408;2023-03-23T10:15:13;100452.69;;;12.69;80.93
71764;BME280;59602;52.142;5.408;2023-03-23T10:17:48;100465.78;;;12.84;81.55
71764;BME280;59602;52.142;5.408;2023-03-23T10:23:13;100457.56;;;13.26;81.63
71764;BME280;59602;52.142;5.408;2023-03-23T10:25:45;100465.63;;;13.40;79.43
71764;BME280;59602;52.142;5.408;2023-03-23T10:28:39;100465.75;;;13.29;77.56
71764;BME280;59602;52.142;5.408;2023-03-23T10:31:11;100461.50;;;13.21;77.69
71764;BME280;59602;52.142;5.408;2023-03-23T10:33:39;100462.63;;;13.27;77.74
71764;BME280;59602;52.142;5.408;2023-03-23T10:36:27;100467.22;;;13.38;75.90
71764;BME280;59602;52.142;5.408;2023-03-23T10:39:02;100478.78;;;13.49;76.19
71764;BME280;59602;52.142;5.408;2023-03-23T10:41:40;100472.50;;;13.52;75.66
71764;BME280;59602;52.142;5.408;2023-03-23T10:44:32;100466.53;;;13.64;76.31
71764;BME280;59602;52.142;5.408;2023-03-23T10:49:47;100469.44;;;13.81;75.16
71764;BME280;59602;52.142;5.408;2023-03-23T10:52:27;100475.22;;;13.86;74.67
71764;BME280;59602;52.142;5.408;2023-03-23T10:55:01;100469.94;;;13.99;73.15
71764;BME280;59602;52.142;5.408;2023-03-23T10:57:30;100466.78;;;14.04;72.99
71764;BME280;59602;52.142;5.408;2023-03-23T11:00:06;100470.16;;;14.12;72.26
71764;BME280;59602;52.142;5.408;2023-03-23T11:02:39;100473.53;;;14.23;71.55
71764;BME280;59602;52.142;5.408;2023-03-23T11:05:18;100470.66;;;14.30;71.46
71764;BME280;59602;52.142;5.408;2023-03-23T11:07:51;100468.66;;;14.35;71.32
71764;BME280;59602;52.142;5.408;2023-03-23T11:15:27;100488.78;;;14.48;70.22
71764;BME280;59602;52.142;5.408;2023-03-23T11:18:10;100488.91;;;14.14;69.40
71764;BME280;59602;52.142;5.408;2023-03-23T11:21:14;100478.28;;;13.88;70.40
71764;BME280;59602;52.142;5.408;2023-03-23T11:27:49;100470.13;;;13.58;69.38
71764;BME280;59602;52.142;5.408;2023-03-23T11:30:20;100482.13;;;13.64;70.06
71764;BME280;59602;52.142;5.408;2023-03-23T11:32:48;100482.72;;;13.79;70.15
71764;BME280;59602;52.142;5.408;2023-03-23T11:35:18;100473.50;;;13.96;69.07
71764;BME280;59602;52.142;5.408;2023-03-23T11:37:54;100469.69;;;13.90;68.21
71764;BME280;59602;52.142;5.408;2023-03-23T11:40:23;100477.28;;;13.75;69.41
71764;BME280;59602;52.142;5.408;2023-03-23T11:43:22;100493.25;;;13.80;69.55
71764;BME280;59602;52.142;5.408;2023-03-23T11:50:08;100468.53;;;13.91;69.46
71764;BME280;59602;52.142;5.408;2023-03-23T11:58:18;100466.69;;;13.81;68.56
71764;BME280;59602;52.142;5.408;2023-03-23T12:00:50;100490.63;;;13.73;70.13
71764;BME280;59602;52.142;5.408;2023-03-23T12:06:04;100486.66;;;13.43;77.53
71764;BME280;59602;52.142;5.408;2023-03-23T12:08:42;100498.03;;;13.38;78.52
71764;BME280;59602;52.142;5.408;2023-03-23T12:11:24;100501.50;;;13.42;79.80
71764;BME280;59602;52.142;5.408;2023-03-23T12:14:14;100493.91;;;13.57;80.16
71764;BME280;59602;52.142;5.408;2023-03-23T13:09:52;100441.22;;;14.15;74.39
71764;BME280;59602;52.142;5.408;2023-03-23T13:12:25;100439.09;;;14.26;73.01
71764;BME280;59602;52.142;5.408;2023-03-23T13:15:25;100444.78;;;14.39;71.91
71764;BME280;59602;52.142;5.408;2023-03-23T13:18:16;100454.47;;;14.43;70.50
71764;BME280;59602;52.142;5.408;2023-03-23T13:20:54;100458.44;;;14.39;70.52
71764;BME280;59602;52.142;5.408;2023-03-23T13:23:33;100464.91;;;14.48;68.18
71764;BME280;59602;52.142;5.408;2023-03-23T13:26:06;100455.81;;;14.59;68.21
71764;BME280;59602;52.142;5.408;2023-03-23T13:31:51;100458.91;;;14.61;68.51
71764;BME280;59602;52.142;5.408;2023-03-23T13:34:24;100458.25;;;14.77;69.98
71764;BME280;59602;52.142;5.408;2023-03-23T13:40:41;100467.34;;;14.70;68.79
71764;BME280;59602;52.142;5.408;2023-03-23T13:43:09;100459.97;;;14.67;68.65
71764;BME280;59602;52.142;5.408;2023-03-23T13:45:44;100478.41;;;14.63;68.20
71764;BME280;59602;52.142;5.408;2023-03-23T13:50:50;100466.03;;;14.55;69.30
71764;BME280;59602;52.142;5.408;2023-03-23T13:53:44;100469.53;;;14.55;69.10
71764;BME280;59602;52.142;5.408;2023-03-23T13:56:19;100469.41;;;14.62;70.10
71764;BME280;59602;52.142;5.408;2023-03-23T13:58:49;100472.88;;;14.66;69.42
71764;BME280;59602;52.142;5.408;2023-03-23T14:01:29;100467.84;;;14.65;69.83
71764;BME280;59602;52.142;5.408;2023-03-23T14:03:59;100455.81;;;14.59;69.46
71764;BME280;59602;52.142;5.408;2023-03-23T14:06:26;100450.00;;;14.53;70.13
71764;BME280;59602;52.142;5.408;2023-03-23T14:09:05;100451.72;;;14.43;69.99
71764;BME280;59602;52.142;5.408;2023-03-23T14:11:32;100460.50;;;14.31;72.34
71764;BME280;59602;52.142;5.408;2023-03-23T14:14:07;100477.13;;;14.17;74.23
71764;BME280;59602;52.142;5.408;2023-03-23T14:16:43;100480.59;;;13.94;76.73
71764;BME280;59602;52.142;5.408;2023-03-23T14:19:18;100477.34;;;13.72;78.70
71764;BME280;59602;52.142;5.408;2023-03-23T14:21:53;100478.72;;;13.56;80.79
71764;BME280;59602;52.142;5.408;2023-03-23T14:24:22;100499.13;;;13.44;82.19
71764;BME280;59602;52.142;5.408;2023-03-23T14:26:49;100482.69;;;13.48;83.69
71764;BME280;59602;52.142;5.408;2023-03-23T14:29:19;100490.31;;;13.64;83.70
71764;BME280;59602;52.142;5.408;2023-03-23T14:31:55;100494.22;;;13.66;84.10
71764;BME280;59602;52.142;5.408;2023-03-23T14:34:24;100474.44;;;13.55;85.00
71764;BME280;59602;52.142;5.408;2023-03-23T14:36:52;100467.00;;;13.56;84.85
71764;BME280;59602;52.142;5.408;2023-03-23T14:39:22;100459.19;;;13.58;86.32
71764;BME280;59602;52.142;5.408;2023-03-23T14:41:49;100451.63;;;13.69;86.13
71764;BME280;59602;52.142;5.408;2023-03-23T14:44:24;100426.91;;;13.80;85.86
71764;BME280;59602;52.142;5.408;2023-03-23T14:46:50;100421.69;;;13.89;85.35
71764;BME280;59602;52.142;5.408;2023-03-23T14:49:19;100414.91;;;13.97;84.06
71764;BME280;59602;52.142;5.408;2023-03-23T14:51:51;100416.03;;;14.00;83.67
71764;BME280;59602;52.142;5.408;2023-03-23T14:54:23;100409.78;;;14.03;83.10
71764;BME280;59602;52.142;5.408;2023-03-23T14:56:50;100403.47;;;14.06;81.49
71764;BME280;59602;52.142;5.408;2023-03-23T14:59:20;100395.63;;;14.08;81.47
71764;BME280;59602;52.142;5.408;2023-03-23T15:01:47;100392.50;;;14.09;78.94